Time;durP1;ratioP1;P1;durP2;ratioP2;P2;SDS_P1;SDS_P2;PMS_P1;PMS_P2;Temp;Humidity;BMP_temperature;BMP_pressure;BME280_temperature;BME280_humidity;BME280_pressure;Samples;Min_cycle;Max_cycle;Signal;HPM_P1;HPM_P2
2024/03/05 00:01:16;;;;;;;19.83;10.18;;;;;;;-145.63;100.00;61273.97;5013175;28;20033;-65
2024/03/05 00:03:42;;;;;;;17.00;10.65;;;;;;;-145.63;100.00;61273.97;5012919;28;20037;-65
2024/03/05 00:06:10;;;;;;;17.17;9.13;;;;;;;-145.63;100.00;61273.97;5012830;28;20160;-64
2024/03/05 00:08:36;;;;;;;18.15;10.50;;;;;;;-145.63;100.00;61273.97;5000980;28;20034;-64
2024/03/05 00:11:03;;;;;;;16.98;9.27;;;;;;;-145.63;100.00;61273.97;5000115;28;20041;-65
2024/03/05 00:13:28;;;;;;;14.77;8.60;;;;;;;-145.63;100.00;61273.97;5013397;28;20065;-65
2024/03/05 00:15:54;;;;;;;14.43;9.18;;;;;;;-145.63;100.00;61273.97;5013582;28;20034;-64
2024/03/05 00:18:20;;;;;;;18.55;9.10;;;;;;;-145.63;100.00;61273.97;4995477;28;20112;-64
2024/03/05 00:20:46;;;;;;;12.02;7.55;;;;;;;-145.63;100.00;61273.97;5007164;28;20034;-63
2024/03/05 00:23:12;;;;;;;13.43;8.43;;;;;;;-145.63;100.00;61273.97;5007998;28;20037;-63
2024/03/05 00:25:39;;;;;;;12.40;7.47;;;;;;;-145.63;100.00;61273.97;5012108;28;20048;-64
2024/03/05 00:28:05;;;;;;;16.23;7.50;;;;;;;-145.63;100.00;61273.97;5012916;28;20048;-65
2024/03/05 00:30:31;;;;;;;12.90;7.97;;;;;;;-145.63;100.00;61273.97;5012932;28;20101;-65
2024/03/05 00:32:58;;;;;;;14.40;7.57;;;;;;;-145.63;100.00;61273.97;5014438;28;20501;-64
2024/03/05 00:35:24;;;;;;;12.32;7.38;;;;;;;-145.63;100.00;61273.97;5016514;28;20092;-63
2024/03/05 00:37:50;;;;;;;16.48;8.60;;;;;;;-145.63;100.00;61273.97;5016424;28;20091;-64
2024/03/05 00:40:16;;;;;;;13.70;7.35;;;;;;;-145.63;100.00;61273.97;5016364;28;20065;-64
2024/03/05 00:42:42;;;;;;;15.93;8.57;;;;;;;-145.63;100.00;61273.97;5016372;28;20061;-64
2024/03/05 00:45:08;;;;;;;13.52;8.82;;;;;;;-145.63;100.00;61273.97;5016403;28;20497;-65
2024/03/05 00:47:35;;;;;;;13.82;7.47;;;;;;;-145.63;100.00;61273.97;5016177;28;20459;-64
2024/03/05 00:50:03;;;;;;;15.13;8.10;;;;;;;-145.63;100.00;61273.97;5008952;28;20026;-65
2024/03/05 00:52:30;;;;;;;14.93;8.45;;;;;;;-145.63;100.00;61273.97;4999364;28;20143;-64
2024/03/05 00:54:57;;;;;;;13.48;8.57;;;;;;;-145.63;100.00;61273.97;5016465;28;20357;-65
2024/03/05 00:57:24;;;;;;;11.60;7.70;;;;;;;-145.63;100.00;61273.97;5015594;28;20057;-64
2024/03/05 00:59:50;;;;;;;12.90;8.38;;;;;;;-145.63;100.00;61273.97;5016048;28;20459;-63
2024/03/05 01:02:16;;;;;;;16.63;8.23;;;;;;;-145.63;100.00;61273.97;5008460;28;20037;-64
2024/03/05 01:04:42;;;;;;;13.35;8.38;;;;;;;-145.63;100.00;61273.97;5011606;28;20026;-64
2024/03/05 01:07:07;;;;;;;14.63;9.07;;;;;;;-145.63;100.00;61273.97;4995926;28;20030;-65
2024/03/05 01:09:33;;;;;;;15.52;8.73;;;;;;;-145.63;100.00;61273.97;5015500;28;20101;-65
2024/03/05 01:11:58;;;;;;;14.85;8.18;;;;;;;-145.63;100.00;61273.97;5015822;28;20041;-65
2024/03/05 01:14:24;;;;;;;14.23;8.57;;;;;;;-145.63;100.00;61273.97;5015714;28;20044;-64
2024/03/05 01:16:50;;;;;;;15.82;8.77;;;;;;;-145.63;100.00;61273.97;5010404;28;20069;-65
2024/03/05 01:19:15;;;;;;;13.57;8.38;;;;;;;-145.63;100.00;61273.97;4997119;28;20027;-65
2024/03/05 01:21:41;;;;;;;14.52;8.45;;;;;;;-145.63;100.00;61273.97;5016014;28;20104;-65
2024/03/05 01:24:10;;;;;;;16.50;8.55;;;;;;;-145.63;100.00;61273.97;5015109;28;20363;-65
2024/03/05 01:26:42;;;;;;;17.92;8.73;;;;;;;-145.63;100.00;61273.97;5015543;28;20066;-64
2024/03/05 01:29:12;;;;;;;12.73;8.35;;;;;;;-145.63;100.00;61273.97;5015179;28;20048;-63
2024/03/05 01:31:38;;;;;;;13.95;8.70;;;;;;;-145.63;100.00;61273.97;5008873;28;20049;-65
2024/03/05 01:34:05;;;;;;;16.02;9.07;;;;;;;-145.63;100.00;61273.97;4996883;28;20042;-65
2024/03/05 01:36:31;;;;;;;12.50;8.82;;;;;;;-145.63;100.00;61273.97;5014776;28;20033;-64
2024/03/05 01:38:57;;;;;;;18.42;8.82;;;;;;;-145.63;100.00;61273.97;5014945;28;20042;-64
2024/03/05 01:41:23;;;;;;;15.40;8.15;;;;;;;-145.63;100.00;61273.97;5015404;28;20033;-64
2024/03/05 01:43:49;;;;;;;16.70;8.75;;;;;;;-145.63;100.00;61273.97;5009697;28;20453;-64
2024/03/05 01:46:17;;;;;;;14.02;8.60;;;;;;;-145.63;100.00;61273.97;4995018;28;20089;-64
2024/03/05 01:48:44;;;;;;;16.45;8.95;;;;;;;-145.63;100.00;61273.97;4995622;28;20344;-64
2024/03/05 01:51:16;;;;;;;13.75;8.82;;;;;;;-145.63;100.00;61273.97;5011039;28;20049;-64
2024/03/05 01:53:46;;;;;;;16.27;9.40;;;;;;;-145.63;100.00;61273.97;5026904;28;20029;-64
2024/03/05 01:56:17;;;;;;;17.42;9.88;;;;;;;-145.63;100.00;61273.97;5026035;28;20375;-65
2024/03/05 01:58:44;;;;;;;14.77;8.52;;;;;;;-145.63;100.00;61273.97;5010889;28;20030;-66
2024/03/05 02:01:14;;;;;;;15.98;9.25;;;;;;;-145.63;100.00;61273.97;4994880;28;20026;-65
2024/03/05 02:03:40;;;;;;;17.23;9.35;;;;;;;-145.63;100.00;61273.97;5008021;28;20036;-65
2024/03/05 02:06:08;;;;;;;15.25;9.68;;;;;;;-145.63;100.00;61273.97;4999567;28;20041;-65
2024/03/05 02:08:36;;;;;;;11.45;8.55;;;;;;;-145.63;100.00;61273.97;5006253;28;20029;-64
2024/03/05 02:11:02;;;;;;;15.50;9.43;;;;;;;-145.63;100.00;61273.97;5014544;28;20402;-64
2024/03/05 02:13:28;;;;;;;16.90;9.50;;;;;;;-145.63;100.00;61273.97;5012877;28;20088;-65
2024/03/05 02:15:54;;;;;;;19.00;9.68;;;;;;;-145.63;100.00;61273.97;4994634;28;20034;-65
2024/03/05 02:18:20;;;;;;;16.55;10.05;;;;;;;-145.63;100.00;61273.97;5028660;28;20026;-65
2024/03/05 02:20:46;;;;;;;15.25;9.85;;;;;;;-145.63;100.00;61273.97;5021784;28;20044;-64
2024/03/05 02:23:12;;;;;;;18.52;9.43;;;;;;;-145.63;100.00;61273.97;5014634;28;20113;-64
2024/03/05 02:25:37;;;;;;;20.77;10.52;;;;;;;-145.63;100.00;61273.97;5014504;28;20068;-64
2024/03/05 02:28:04;;;;;;;14.65;9.25;;;;;;;-145.63;100.00;61273.97;5014629;28;20034;-65
2024/03/05 02:30:30;;;;;;;18.05;10.00;;;;;;;-145.63;100.00;61273.97;4996286;28;20041;-65
2024/03/05 02:33:00;;;;;;;14.68;10.00;;;;;;;-145.63;100.00;61273.97;5009037;28;20487;-64
2024/03/05 02:35:26;;;;;;;18.02;9.68;;;;;;;-145.63;100.00;61273.97;5004911;28;20117;-64
2024/03/05 02:37:51;;;;;;;14.48;9.68;;;;;;;-145.63;100.00;61273.97;5009175;28;20069;-64
2024/03/05 02:40:17;;;;;;;17.63;9.75;;;;;;;-145.63;100.00;61273.97;4995186;28;20057;-66
2024/03/05 02:42:44;;;;;;;19.77;11.15;;;;;;;-145.63;100.00;61273.97;5014074;28;20078;-65
2024/03/05 02:45:13;;;;;;;17.52;10.05;;;;;;;-145.63;100.00;61273.97;4998022;28;20038;-65
2024/03/05 02:47:42;;;;;;;17.55;10.15;;;;;;;-145.63;100.00;61273.97;4994010;28;20070;-65
2024/03/05 02:50:09;;;;;;;15.15;10.13;;;;;;;-145.63;100.00;61273.97;5001127;28;20062;-64
2024/03/05 02:52:35;;;;;;;16.02;9.90;;;;;;;-145.63;100.00;61273.97;5013565;28;20104;-65
2024/03/05 02:55:01;;;;;;;15.15;9.50;;;;;;;-145.63;100.00;61273.97;5013286;28;20033;-66
2024/03/05 02:57:29;;;;;;;19.33;10.18;;;;;;;-145.63;100.00;61273.97;5032062;28;20105;-64
2024/03/05 02:59:54;;;;;;;17.08;9.75;;;;;;;-145.63;100.00;61273.97;5020117;28;20117;-66
2024/03/05 03:02:21;;;;;;;15.10;9.80;;;;;;;-145.63;100.00;61273.97;5007206;28;20034;-66
2024/03/05 03:04:47;;;;;;;17.98;10.02;;;;;;;-145.63;100.00;61273.97;5010327;28;20035;-66
2024/03/05 03:07:13;;;;;;;14.60;9.93;;;;;;;-145.63;100.00;61273.97;4995224;28;20038;-66
2024/03/05 03:09:39;;;;;;;16.23;10.02;;;;;;;-145.63;100.00;61273.97;5014079;28;20420;-65
2024/03/05 03:12:05;;;;;;;14.60;9.65;;;;;;;-145.63;100.00;61273.97;5014619;28;20022;-64
2024/03/05 03:14:31;;;;;;;16.48;10.63;;;;;;;-145.63;100.00;61273.97;5014871;28;20033;-65
2024/03/05 03:16:57;;;;;;;20.08;10.30;;;;;;;-145.63;100.00;61273.97;5007953;28;20388;-64
2024/03/05 03:19:23;;;;;;;19.58;9.90;;;;;;;-145.63;100.00;61273.97;4995403;28;20042;-65
2024/03/05 03:21:49;;;;;;;15.93;10.15;;;;;;;-145.63;100.00;61273.97;5014817;28;20407;-65
2024/03/05 03:24:17;;;;;;;19.13;9.82;;;;;;;-145.63;100.00;61273.97;4998154;28;20045;-65
2024/03/05 03:26:44;;;;;;;17.23;10.05;;;;;;;-145.63;100.00;61273.97;5006116;28;20479;-65
2024/03/05 03:29:13;;;;;;;15.27;10.27;;;;;;;-145.63;100.00;61273.97;5006014;28;20042;-65
2024/03/05 03:31:48;;;;;;;17.98;10.45;;;;;;;-145.63;100.00;61273.97;5001136;28;20046;-64
2024/03/05 03:34:17;;;;;;;16.40;9.88;;;;;;;-145.63;100.00;61273.97;4994098;28;20050;-65
2024/03/05 03:36:43;;;;;;;18.63;10.75;;;;;;;-145.63;100.00;61273.97;5013396;28;20040;-64
2024/03/05 03:39:11;;;;;;;19.17;10.13;;;;;;;-145.63;100.00;61273.97;4998097;28;20526;-64
2024/03/05 03:41:40;;;;;;;17.10;10.60;;;;;;;-145.63;100.00;61273.97;5005720;28;20100;-64
2024/03/05 03:44:07;;;;;;;17.75;9.68;;;;;;;-145.63;100.00;61273.97;5007429;28;20036;-65
2024/03/05 03:46:36;;;;;;;16.92;9.75;;;;;;;-145.63;100.00;61273.97;4994094;28;20038;-65
2024/03/05 03:49:06;;;;;;;15.40;10.10;;;;;;;-145.63;100.00;61273.97;4994064;28;20031;-65
2024/03/05 03:51:32;;;;;;;17.25;10.60;;;;;;;-145.63;100.00;61273.97;5010331;28;20480;-64
2024/03/05 03:53:59;;;;;;;18.17;10.40;;;;;;;-145.63;100.00;61273.97;5013631;28;20030;-65
2024/03/05 03:56:25;;;;;;;16.42;11.07;;;;;;;-145.63;100.00;61273.97;5013354;28;20034;-64
2024/03/05 03:58:51;;;;;;;15.80;9.95;;;;;;;-145.63;100.00;61273.97;5013579;28;20057;-65
2024/03/05 04:01:20;;;;;;;17.33;11.15;;;;;;;-145.63;100.00;61273.97;5013164;28;20040;-64
2024/03/05 04:03:47;;;;;;;15.02;10.35;;;;;;;-145.63;100.00;61273.97;5006969;28;20038;-64
2024/03/05 04:06:13;;;;;;;17.08;10.45;;;;;;;-145.63;100.00;61273.97;5013610;28;20046;-64
2024/03/05 04:08:39;;;;;;;16.08;10.02;;;;;;;-145.63;100.00;61273.97;5005539;28;20030;-64
2024/03/05 04:11:05;;;;;;;16.65;10.45;;;;;;;-145.63;100.00;61273.97;5005209;28;20033;-64
2024/03/05 04:13:33;;;;;;;17.30;10.38;;;;;;;-145.63;100.00;61273.97;5016590;28;20120;-65
2024/03/05 04:15:59;;;;;;;19.08;11.38;;;;;;;-145.63;100.00;61273.97;4996767;28;20419;-66
2024/03/05 04:18:25;;;;;;;17.73;10.00;;;;;;;-145.63;100.00;61273.97;5030306;28;20030;-65
2024/03/05 04:20:51;;;;;;;18.65;10.55;;;;;;;-145.63;100.00;61273.97;5024195;28;20049;-65
2024/03/05 04:23:18;;;;;;;15.40;10.50;;;;;;;-145.63;100.00;61273.97;5008933;28;20148;-65
2024/03/05 04:25:44;;;;;;;18.92;11.18;;;;;;;-145.63;100.00;61273.97;5001155;28;20042;-65
2024/03/05 04:28:12;;;;;;;17.23;10.98;;;;;;;-145.63;100.00;61273.97;5016310;28;20038;-68
2024/03/05 04:30:41;;;;;;;18.65;11.40;;;;;;;-145.63;100.00;61273.97;4997733;28;20491;-65
2024/03/05 04:33:09;;;;;;;19.98;10.85;;;;;;;-145.63;100.00;61273.97;5010777;28;20121;-66
2024/03/05 04:35:37;;;;;;;16.80;10.60;;;;;;;-145.63;100.00;61273.97;5012065;28;20042;-64
2024/03/05 04:38:07;;;;;;;18.58;11.40;;;;;;;-145.63;100.00;61273.97;5015918;28;20061;-65
2024/03/05 04:40:33;;;;;;;17.63;10.90;;;;;;;-145.63;100.00;61273.97;5015868;28;20034;-64
2024/03/05 04:42:59;;;;;;;18.23;11.23;;;;;;;-145.63;100.00;61273.97;5015621;28;20045;-65
2024/03/05 04:45:25;;;;;;;16.52;11.15;;;;;;;-145.63;100.00;61273.97;5001064;28;20460;-63
2024/03/05 04:47:51;;;;;;;18.30;10.18;;;;;;;-145.63;100.00;61273.97;4996547;28;20484;-66
2024/03/05 04:50:18;;;;;;;18.33;11.07;;;;;;;-145.63;100.00;61273.97;5004682;28;20659;-64
2024/03/05 04:52:44;;;;;;;18.55;11.52;;;;;;;-145.63;100.00;61273.97;5018203;28;20079;-64
2024/03/05 04:55:10;;;;;;;17.33;10.95;;;;;;;-145.63;100.00;61273.97;5018231;28;20105;-66
2024/03/05 04:57:36;;;;;;;17.75;11.15;;;;;;;-145.63;100.00;61273.97;5015949;28;20026;-66
2024/03/05 05:00:02;;;;;;;20.23;11.77;;;;;;;-145.63;100.00;61273.97;5002625;28;20380;-64
2024/03/05 05:02:29;;;;;;;17.63;11.10;;;;;;;-145.63;100.00;61273.97;5004776;28;20025;-66
2024/03/05 05:04:55;;;;;;;21.05;11.15;;;;;;;-145.63;100.00;61273.97;5016214;28;20038;-65
2024/03/05 05:07:23;;;;;;;19.48;12.02;;;;;;;-145.63;100.00;61273.97;5015680;28;20038;-66
2024/03/05 05:09:49;;;;;;;15.38;10.52;;;;;;;-145.63;100.00;61273.97;5014650;28;20034;-65
2024/03/05 05:12:15;;;;;;;15.60;10.82;;;;;;;-145.63;100.00;61273.97;5015572;28;20034;-67
2024/03/05 05:14:40;;;;;;;19.58;12.50;;;;;;;-145.63;100.00;61273.97;5005239;28;20050;-66
2024/03/05 05:17:06;;;;;;;16.27;10.57;;;;;;;-145.63;100.00;61273.97;5000689;28;20022;-64
2024/03/05 05:19:32;;;;;;;18.70;11.40;;;;;;;-145.63;100.00;61273.97;5013255;28;20041;-65
2024/03/05 05:21:58;;;;;;;18.95;10.55;;;;;;;-145.63;100.00;61273.97;5010036;28;20030;-67
2024/03/05 05:24:24;;;;;;;19.40;11.07;;;;;;;-145.63;100.00;61273.97;5031961;28;20377;-64
2024/03/05 05:26:50;;;;;;;18.05;11.35;;;;;;;-145.63;100.00;61273.97;5021761;28;20049;-65
2024/03/05 05:29:15;;;;;;;16.85;11.45;;;;;;;-145.63;100.00;61273.97;5011613;28;20025;-64
2024/03/05 05:31:42;;;;;;;19.05;11.52;;;;;;;-145.63;100.00;61273.97;5006645;28;20034;-63
2024/03/05 05:34:08;;;;;;;17.33;11.00;;;;;;;-145.63;100.00;61273.97;5015527;28;20057;-63
2024/03/05 05:36:34;;;;;;;17.63;11.45;;;;;;;-145.63;100.00;61273.97;4998571;28;20038;-63
2024/03/05 05:38:59;;;;;;;16.83;11.13;;;;;;;-145.63;100.00;61273.97;5008395;28;20033;-63
2024/03/05 05:41:25;;;;;;;16.77;11.32;;;;;;;-145.63;100.00;61273.97;5015738;28;20034;-65
2024/03/05 05:43:56;;;;;;;18.20;11.48;;;;;;;-145.63;100.00;61273.97;5014447;28;20192;-64
2024/03/05 05:46:22;;;;;;;18.63;11.05;;;;;;;-145.63;100.00;61273.97;5015267;28;20038;-63
2024/03/05 05:48:50;;;;;;;16.10;11.32;;;;;;;-145.63;100.00;61273.97;4996721;28;20032;-63
2024/03/05 05:51:18;;;;;;;16.80;10.35;;;;;;;-145.63;100.00;61273.97;5010369;28;20112;-67
2024/03/05 05:53:44;;;;;;;17.95;11.43;;;;;;;-145.63;100.00;61273.97;5004890;28;20042;-63
2024/03/05 05:56:10;;;;;;;16.63;10.35;;;;;;;-145.63;100.00;61273.97;5003465;28;20026;-65
2024/03/05 05:58:36;;;;;;;18.50;10.93;;;;;;;-145.63;100.00;61273.97;5014485;28;20034;-64
2024/03/05 06:01:09;;;;;;;18.92;11.50;;;;;;;-145.63;100.00;61273.97;5013542;28;20506;-64
2024/03/05 06:03:38;;;;;;;16.58;10.93;;;;;;;-145.63;100.00;61273.97;5009260;28;20120;-63
2024/03/05 06:06:04;;;;;;;15.52;11.45;;;;;;;-145.63;100.00;61273.97;5008457;28;20121;-63
2024/03/05 06:08:30;;;;;;;15.32;10.77;;;;;;;-145.63;100.00;61273.97;5014894;28;20034;-64
2024/03/05 06:10:57;;;;;;;15.18;9.90;;;;;;;-145.63;100.00;61273.97;5011680;28;20092;-63
2024/03/05 06:13:25;;;;;;;17.23;10.80;;;;;;;-145.63;100.00;61273.97;4995361;28;20118;-65
2024/03/05 06:15:51;;;;;;;18.20;10.73;;;;;;;-145.63;100.00;61273.97;5012367;28;20032;-65
2024/03/05 06:18:20;;;;;;;15.50;10.45;;;;;;;-145.63;100.00;61273.97;5014306;28;20088;-67
2024/03/05 06:20:48;;;;;;;14.50;10.57;;;;;;;-145.63;100.00;61273.97;5014690;28;20038;-64
2024/03/05 06:23:14;;;;;;;17.13;11.05;;;;;;;-145.63;100.00;61273.97;5009902;28;20515;-65
2024/03/05 06:25:39;;;;;;;15.25;11.05;;;;;;;-145.63;100.00;61273.97;5008211;28;20032;-64
2024/03/05 06:28:09;;;;;;;17.55;11.25;;;;;;;-145.63;100.00;61273.97;5008102;28;20036;-64
2024/03/05 06:30:36;;;;;;;16.70;10.57;;;;;;;-145.63;100.00;61273.97;5014451;28;20067;-67
2024/03/05 06:33:04;;;;;;;14.88;10.48;;;;;;;-145.63;100.00;61273.97;5013975;28;20139;-65
2024/03/05 06:35:31;;;;;;;18.33;11.00;;;;;;;-145.63;100.00;61273.97;5013675;28;20041;-64
2024/03/05 06:37:58;;;;;;;18.80;12.00;;;;;;;-145.63;100.00;61273.97;5009385;28;20030;-64
2024/03/05 06:40:25;;;;;;;16.45;10.57;;;;;;;-145.63;100.00;61273.97;5013568;28;20072;-63
2024/03/05 06:43:04;;;;;;;15.82;10.50;;;;;;;-145.63;100.00;61273.97;5014503;28;20046;-63
2024/03/05 06:45:33;;;;;;;15.93;10.38;;;;;;;-145.63;100.00;61273.97;5013959;28;20038;-63
2024/03/05 06:48:07;;;;;;;14.93;10.38;;;;;;;-145.63;100.00;61273.97;5013963;28;20034;-63
2024/03/05 06:50:42;;;;;;;17.00;10.40;;;;;;;-145.63;100.00;61273.97;5013977;28;20036;-65
2024/03/05 06:58:44;;;;;;;13.93;10.07;;;;;;;-145.63;100.00;61273.97;5013788;28;20179;-64
2024/03/05 07:01:11;;;;;;;15.73;10.45;;;;;;;-145.63;100.00;61273.97;5013278;28;20363;-66
2024/03/05 07:03:38;;;;;;;16.33;11.05;;;;;;;-145.63;100.00;61273.97;5012220;28;20041;-64
2024/03/05 07:06:12;;;;;;;14.35;9.82;;;;;;;-145.63;100.00;61273.97;5004771;28;20030;-64
2024/03/05 07:08:40;;;;;;;15.65;10.55;;;;;;;-145.63;100.00;61273.97;5008601;28;20045;-64
2024/03/05 07:11:09;;;;;;;14.68;9.85;;;;;;;-145.63;100.00;61273.97;5018290;28;20087;-64
2024/03/05 07:13:40;;;;;;;15.73;10.18;;;;;;;-145.63;100.00;61273.97;5033094;28;20026;-64
2024/03/05 07:16:09;;;;;;;14.63;9.97;;;;;;;-145.63;100.00;61273.97;5013563;28;20030;-64
2024/03/05 07:18:36;;;;;;;14.88;9.95;;;;;;;-145.63;100.00;61273.97;5013238;28;20064;-65
2024/03/05 07:21:07;;;;;;;14.35;10.10;;;;;;;-145.63;100.00;61273.97;5005655;28;20026;-64
2024/03/05 07:23:33;;;;;;;13.65;9.90;;;;;;;-145.63;100.00;61273.97;5013300;28;20057;-64
2024/03/05 07:25:59;;;;;;;13.20;9.63;;;;;;;-145.63;100.00;61273.97;5009764;28;20066;-64
2024/03/05 07:28:26;;;;;;;15.40;9.65;;;;;;;-145.63;100.00;61273.97;4996022;28;20034;-64
2024/03/05 07:30:52;;;;;;;14.65;9.18;;;;;;;-145.63;100.00;61273.97;5000589;28;20048;-64
2024/03/05 07:33:18;;;;;;;13.85;8.85;;;;;;;-145.63;100.00;61273.97;5012652;28;20058;-64
2024/03/05 07:35:46;;;;;;;14.25;9.20;;;;;;;-145.63;100.00;61273.97;5003849;28;20384;-65
2024/03/05 07:38:15;;;;;;;12.77;8.68;;;;;;;-145.63;100.00;61273.97;5013198;28;20060;-64
2024/03/05 07:40:41;;;;;;;11.88;8.95;;;;;;;-145.63;100.00;61273.97;5011618;28;20053;-64
2024/03/05 07:43:08;;;;;;;13.57;8.82;;;;;;;-145.63;100.00;61273.97;5012744;28;20087;-64
2024/03/05 07:45:35;;;;;;;14.48;9.93;;;;;;;-145.63;100.00;61273.97;5004768;28;20046;-64
2024/03/05 07:48:01;;;;;;;12.93;8.18;;;;;;;-145.63;100.00;61273.97;5012245;28;20046;-64
2024/03/05 07:50:28;;;;;;;10.95;7.90;;;;;;;-145.63;100.00;61273.97;5002786;28;20026;-62
2024/03/05 07:52:57;;;;;;;12.35;8.23;;;;;;;-145.63;100.00;61273.97;5012400;28;20034;-64
2024/03/05 07:55:23;;;;;;;11.43;8.07;;;;;;;-145.63;100.00;61273.97;5007074;28;20467;-65
2024/03/05 07:57:49;;;;;;;11.88;8.50;;;;;;;-145.63;100.00;61273.97;5010377;28;20029;-64
2024/03/05 08:00:17;;;;;;;11.05;7.68;;;;;;;-145.63;100.00;61273.97;5006725;28;20076;-65
2024/03/05 08:02:47;;;;;;;10.73;7.03;;;;;;;-145.63;100.00;61273.97;5012900;28;20030;-64
2024/03/05 08:05:18;;;;;;;14.50;7.63;;;;;;;-145.63;100.00;61273.97;5012394;28;20456;-65
2024/03/05 08:07:45;;;;;;;11.15;6.93;;;;;;;-145.63;100.00;61273.97;5011289;28;20470;-65
2024/03/05 08:10:12;;;;;;;9.95;6.70;;;;;;;-145.63;100.00;61273.97;5011226;28;20410;-64
2024/03/05 08:12:44;;;;;;;14.40;8.23;;;;;;;-145.63;100.00;61273.97;5011301;28;20452;-64
2024/03/05 08:15:15;;;;;;;12.85;7.53;;;;;;;-145.63;100.00;61273.97;5012434;28;20037;-65
2024/03/05 08:17:46;;;;;;;15.73;7.25;;;;;;;-145.63;100.00;61273.97;5011223;28;20037;-64
2024/03/05 08:20:16;;;;;;;9.53;6.53;;;;;;;-145.63;100.00;61273.97;5007391;28;20030;-63
2024/03/05 08:22:45;;;;;;;8.60;6.03;;;;;;;-145.63;100.00;61273.97;5013144;28;20440;-63
2024/03/05 08:25:18;;;;;;;8.10;6.40;;;;;;;-145.63;100.00;61273.97;5011657;28;20069;-64
2024/03/05 08:27:47;;;;;;;8.43;6.55;;;;;;;-145.63;100.00;61273.97;5001042;28;20026;-64
2024/03/05 08:30:17;;;;;;;9.95;6.35;;;;;;;-145.63;100.00;61273.97;5012577;28;20493;-63
2024/03/05 08:32:52;;;;;;;9.57;6.47;;;;;;;-145.63;100.00;61273.97;5005293;28;20050;-65
2024/03/05 08:35:19;;;;;;;10.40;6.03;;;;;;;-145.63;100.00;61273.97;5010824;28;20097;-64
2024/03/05 08:37:46;;;;;;;10.18;6.30;;;;;;;-145.63;100.00;61273.97;5012575;28;20107;-64
2024/03/05 08:40:13;;;;;;;11.93;6.80;;;;;;;-145.63;100.00;61273.97;5011623;28;20026;-65
2024/03/05 08:42:42;;;;;;;8.65;6.30;;;;;;;-145.63;100.00;61273.97;5003300;28;20133;-64
2024/03/05 08:45:09;;;;;;;7.93;5.88;;;;;;;-145.63;100.00;61273.97;5012462;28;20041;-64
2024/03/05 08:47:36;;;;;;;10.30;6.97;;;;;;;-145.63;100.00;61273.97;5011391;28;20037;-63
2024/03/05 08:50:03;;;;;;;9.27;6.00;;;;;;;-145.63;100.00;61273.97;5009818;28;20196;-64
2024/03/05 08:52:29;;;;;;;11.05;6.50;;;;;;;-145.63;100.00;61273.97;5012887;28;20033;-63
2024/03/05 08:54:56;;;;;;;8.07;5.80;;;;;;;-145.63;100.00;61273.97;5014913;28;20372;-64
2024/03/05 08:57:26;;;;;;;8.45;5.45;;;;;;;-145.63;100.00;61273.97;5004182;28;20034;-63
2024/03/05 08:59:53;;;;;;;9.65;5.85;;;;;;;-145.63;100.00;61273.97;5013788;28;20057;-63
2024/03/05 09:02:19;;;;;;;7.72;5.40;;;;;;;-145.63;100.00;61273.97;5015761;28;20077;-64
2024/03/05 09:04:45;;;;;;;8.27;5.32;;;;;;;-145.63;100.00;61273.97;5014624;28;20440;-64
2024/03/05 09:07:11;;;;;;;9.45;5.72;;;;;;;-145.63;100.00;61273.97;5015710;28;20537;-64
2024/03/05 09:09:37;;;;;;;5.82;4.93;;;;;;;-145.63;100.00;61273.97;5015823;28;20026;-64
2024/03/05 09:12:03;;;;;;;8.93;5.38;;;;;;;-145.63;100.00;61273.97;5015491;28;20030;-65
2024/03/05 09:14:28;;;;;;;7.43;5.03;;;;;;;-145.63;100.00;61273.97;5009531;28;20109;-65
2024/03/05 09:16:54;;;;;;;5.68;4.85;;;;;;;-145.63;100.00;61273.97;4998227;28;20061;-64
2024/03/05 09:19:21;;;;;;;6.03;4.38;;;;;;;-145.63;100.00;61273.97;5015001;28;20029;-64
2024/03/05 09:21:50;;;;;;;5.47;4.28;;;;;;;-145.63;100.00;61273.97;5015291;28;20391;-64
2024/03/05 09:24:17;;;;;;;5.72;3.85;;;;;;;-145.63;100.00;61273.97;5010825;28;20018;-65
2024/03/05 09:26:43;;;;;;;7.63;3.97;;;;;;;-145.63;100.00;61273.97;5015697;28;20033;-64
2024/03/05 09:29:09;;;;;;;5.13;4.13;;;;;;;-145.63;100.00;61273.97;5002637;28;20045;-65
2024/03/05 09:31:35;;;;;;;7.07;3.92;;;;;;;-145.63;100.00;61273.97;5014519;28;20483;-64
2024/03/05 09:34:02;;;;;;;5.43;3.83;;;;;;;-145.63;100.00;61273.97;5006754;28;20050;-64
2024/03/05 09:36:28;;;;;;;5.88;4.55;;;;;;;-145.63;100.00;61273.97;5014202;28;20625;-65
2024/03/05 09:38:55;;;;;;;5.97;4.07;;;;;;;-145.63;100.00;61273.97;5013294;28;20100;-65
2024/03/05 09:41:21;;;;;;;7.55;3.85;;;;;;;-145.63;100.00;61273.97;5015111;28;20077;-63
2024/03/05 09:43:49;;;;;;;6.50;3.67;;;;;;;-145.63;100.00;61273.97;4999405;28;20436;-66
2024/03/05 09:46:15;;;;;;;5.00;3.55;;;;;;;-145.63;100.00;61273.97;5014545;28;20079;-63
2024/03/05 09:48:41;;;;;;;5.68;3.78;;;;;;;-145.63;100.00;61273.97;5010892;28;20042;-64
2024/03/05 09:51:12;;;;;;;5.65;3.97;;;;;;;-145.63;100.00;61273.97;5009117;28;20029;-65
2024/03/05 09:53:38;;;;;;;5.18;2.92;;;;;;;-145.63;100.00;61273.97;5008078;28;20484;-63
2024/03/05 09:56:06;;;;;;;4.25;2.90;;;;;;;-145.63;100.00;61273.97;5002458;28;20370;-66
2024/03/05 09:58:36;;;;;;;4.60;2.38;;;;;;;-145.63;100.00;61273.97;5014830;28;20068;-64
2024/03/05 10:01:03;;;;;;;3.13;2.30;;;;;;;-145.63;100.00;61273.97;4996080;28;20538;-64
2024/03/05 10:03:31;;;;;;;3.00;2.55;;;;;;;-145.63;100.00;61273.97;5010788;28;20045;-64
2024/03/05 10:05:57;;;;;;;3.97;2.45;;;;;;;-145.63;100.00;61273.97;5004778;28;20049;-64
2024/03/05 10:08:22;;;;;;;4.10;2.25;;;;;;;-145.63;100.00;61273.97;5000065;28;20105;-63
2024/03/05 10:10:49;;;;;;;4.75;2.58;;;;;;;-145.63;100.00;61273.97;5014519;28;20033;-64
2024/03/05 10:13:16;;;;;;;2.60;2.28;;;;;;;-145.63;100.00;61273.97;4996118;28;20099;-65
2024/03/05 10:15:43;;;;;;;5.50;2.60;;;;;;;-145.63;100.00;61273.97;4998700;28;20026;-64
2024/03/05 10:18:08;;;;;;;3.03;2.42;;;;;;;-145.63;100.00;61273.97;5005001;28;20030;-64
2024/03/05 10:20:39;;;;;;;5.03;2.80;;;;;;;-145.63;100.00;61273.97;5012646;28;20088;-64
2024/03/05 10:23:09;;;;;;;4.85;2.83;;;;;;;-145.63;100.00;61273.97;5016440;28;20053;-63
2024/03/05 10:25:35;;;;;;;4.15;2.85;;;;;;;-145.63;100.00;61273.97;5034294;28;20029;-63
2024/03/05 10:28:02;;;;;;;5.78;2.70;;;;;;;-145.63;100.00;61273.97;5015789;28;20044;-64
2024/03/05 10:30:32;;;;;;;4.82;3.03;;;;;;;-145.63;100.00;61273.97;5003151;28;20030;-63
2024/03/05 10:33:00;;;;;;;3.42;2.60;;;;;;;-145.63;100.00;61273.97;5014065;28;20057;-63
2024/03/05 10:35:26;;;;;;;2.55;2.28;;;;;;;-145.63;100.00;61273.97;5011005;28;20502;-64
2024/03/05 10:38:05;;;;;;;3.00;2.10;;;;;;;-145.63;100.00;61273.97;5012462;28;20030;-65
2024/03/05 10:40:32;;;;;;;1.98;1.58;;;;;;;-145.63;100.00;61273.97;5013154;28;20034;-64
2024/03/05 10:43:08;;;;;;;3.75;2.13;;;;;;;-145.63;100.00;61273.97;5013428;28;20109;-63
2024/03/05 10:45:38;;;;;;;2.80;2.22;;;;;;;-145.63;100.00;61273.97;5014256;28;20038;-64
2024/03/05 10:48:04;;;;;;;2.65;1.90;;;;;;;-145.63;100.00;61273.97;5002987;28;20030;-64
2024/03/05 10:50:35;;;;;;;4.80;1.65;;;;;;;-145.63;100.00;61273.97;5005652;28;20111;-64
2024/03/05 10:53:04;;;;;;;2.55;2.05;;;;;;;-145.63;100.00;61273.97;5032167;28;20162;-64
2024/03/05 10:55:33;;;;;;;3.65;2.00;;;;;;;-145.63;100.00;61273.97;5014729;28;20033;-64
2024/03/05 11:00:43;;;;;;;3.15;1.60;;;;;;;-145.63;100.00;61273.97;5009130;28;20109;-64
2024/03/05 11:03:10;;;;;;;2.58;1.60;;;;;;;-145.63;100.00;61273.97;5012649;28;20034;-64
2024/03/05 11:06:03;;;;;;;4.60;1.80;;;;;;;-145.63;100.00;61273.97;5014183;28;20522;-64
2024/03/05 11:08:30;;;;;;;2.55;1.70;;;;;;;-145.63;100.00;61273.97;5007455;28;20034;-65